Allensville, Ohio
Current Conditions -  °F | °C
As of 4:55 AM on Sunday 23 Nov 2014 (Local Time) from KUNI Reporting Station
Overcast Overcast  
Wind Chill:   Ceiling: 10000
Heat Index:   Visibility: 10mi
Dew Point: -2°   Wind: 0mph
Humidity: 68%   Direction: NA
Pressure: 30.08"   Gusts: NA
Location:  39.2719°N, 82.4596°W
Report Text: KUNI 230955Z AUTO 00000KT 10SM SCT080 OVC100 04/M01 A3008 RMK AO2 T00401015
Loading
Personal Weather Stations






























Interactive Weather Map New forecast layout! Learn more

10-Day Weather Forecast

Advertisements
Track Severe Weather on mobile